首页
METAR-TAF:

METAR-TAF

机场 :

阿姆斯特丹史基浦機場

阿姆斯特丹, 荷兰

纬度: 52-18N, 经度: 004-46E, 海拔: -4米

当前天气观测

该预报发布于27分钟前的01:55 UTC
风速8节,风向西转西北
温度 12°C
湿度 82%
气压 1027 hPa
能见度10公里或以上
多云层高于2200英尺

METAR: EHAM 230155Z 30008KT 9999 BKN022 12/09 Q1027 NOSIG

时间: 04:22 (02:22 UTC)

预报

该预报发布于3小时和13分钟前的23:09 UTC
预报有效从23日的 00点(UTC)到 24日的 06点(UTC)
风速6节,风向西转西北
能见度10公里或以上
散云层高于2500英尺
成为
从 23日的 05点(UTC)到 23日的 08点(UTC)
风速12节,风向西转西北
几率 30% :
短暂存在
从 23日的 05点(UTC)到 23日的 08点(UTC)
多云层高于2000英尺
成为
从 23日的 18点(UTC)到 23日的 21点(UTC)
风速5节,风向北转西北
几率 30% :
短暂存在
从 24日的 01点(UTC)到 24日的 06点(UTC)
多云层高于2000英尺

TAF: EHAM 222309Z 2300/2406 30006KT 9999 SCT025 BECMG 2305/2308 30012KT PROB30 TEMPO 2305/2308 BKN020 BECMG 2318/2321 33005KT PROB30 TEMPO 2401/2406 BKN020

超过4000个机场的气象观测和天气预报(METAR&TAF报告)。

可查询的气象台以黄色和红色小点在地图上表示。

将鼠标移到小点上方,可查看气象台名称。

然后点击查看天气观测和预报。

如需切换地图:点击带黑十字的绿色按钮放大地图;点击带横线的绿色按钮缩小地图;或者点击绿色箭头查看邻近地区的地图。


METAR-TAF: